createdAt,value
2022-08-25T00:00:49.000Z,48.91
2022-08-25T00:01:55.000Z,49.59
2022-08-25T00:02:49.000Z,49.33
2022-08-25T00:03:49.000Z,48.84
2022-08-25T00:04:49.000Z,49.54
2022-08-25T00:05:49.000Z,49.18
2022-08-25T00:06:50.000Z,49.48
2022-08-25T00:07:49.000Z,49.22
2022-08-25T00:08:49.000Z,49.62
2022-08-25T00:09:49.000Z,49.77
2022-08-25T00:10:49.000Z,49.86
2022-08-25T00:11:49.000Z,49.94
2022-08-25T00:12:49.000Z,49.71
2022-08-25T00:13:54.000Z,49.90
2022-08-25T00:14:49.000Z,49.35
2022-08-25T00:15:49.000Z,50.26
2022-08-25T00:16:49.000Z,49.45
2022-08-25T00:17:49.000Z,50.06
2022-08-25T00:18:52.000Z,49.73
2022-08-25T00:19:49.000Z,49.45
2022-08-25T00:20:49.000Z,49.85
2022-08-25T00:21:49.000Z,49.88
2022-08-25T00:22:49.000Z,49.61
2022-08-25T00:23:49.000Z,49.66
2022-08-25T00:24:49.000Z,49.79
2022-08-25T00:25:49.000Z,49.55
2022-08-25T00:26:54.000Z,50.10
2022-08-25T00:27:49.000Z,50.21
2022-08-25T00:28:48.000Z,50.25
2022-08-25T00:29:49.000Z,50.15
2022-08-25T00:30:49.000Z,50.05
2022-08-25T00:31:49.000Z,50.18
2022-08-25T00:32:49.000Z,50.13
2022-08-25T00:33:50.000Z,50.40
2022-08-25T00:34:49.000Z,50.11
2022-08-25T00:35:49.000Z,49.87
2022-08-25T00:36:52.000Z,50.58
2022-08-25T00:37:49.000Z,50.56
2022-08-25T00:38:49.000Z,50.45
2022-08-25T00:39:49.000Z,50.79
2022-08-25T00:41:04.000Z,50.28
2022-08-25T00:41:52.000Z,51.05
2022-08-25T00:42:49.000Z,50.79
2022-08-25T00:43:56.000Z,50.94
2022-08-25T00:44:49.000Z,50.62
2022-08-25T00:45:49.000Z,50.63
2022-08-25T00:46:53.000Z,51.07
2022-08-25T00:47:48.000Z,50.94
2022-08-25T00:48:54.000Z,51.18
2022-08-25T00:49:55.000Z,51.23
2022-08-25T00:50:49.000Z,51.08
2022-08-25T00:51:56.000Z,51.10
2022-08-25T00:52:52.000Z,51.70
2022-08-25T00:53:49.000Z,51.37
2022-08-25T00:54:59.000Z,51.20
2022-08-25T00:55:49.000Z,51.57
2022-08-25T00:56:50.000Z,51.54
2022-08-25T00:58:11.000Z,51.69
2022-08-25T00:58:49.000Z,51.83
2022-08-25T00:59:49.000Z,51.90
2022-08-25T01:00:51.000Z,51.94
2022-08-25T01:01:49.000Z,51.66
2022-08-25T01:02:49.000Z,51.69
2022-08-25T01:03:49.000Z,51.95
2022-08-25T01:04:48.000Z,52.07
2022-08-25T01:05:50.000Z,52.23
2022-08-25T01:06:49.000Z,52.20
2022-08-25T01:07:50.000Z,51.82
2022-08-25T01:08:50.000Z,51.98
2022-08-25T01:09:50.000Z,52.15
2022-08-25T01:10:49.000Z,52.29
2022-08-25T01:11:48.000Z,52.38
2022-08-25T01:12:55.000Z,52.40
2022-08-25T01:13:55.000Z,52.66
2022-08-25T01:14:51.000Z,52.41
2022-08-25T01:15:52.000Z,52.35
2022-08-25T01:16:49.000Z,52.67
2022-08-25T01:17:54.000Z,52.69
2022-08-25T01:18:55.000Z,52.62
2022-08-25T01:19:48.000Z,52.70
2022-08-25T01:20:50.000Z,52.88
2022-08-25T01:21:50.000Z,52.65
2022-08-25T01:22:50.000Z,52.57
2022-08-25T01:23:49.000Z,52.76
2022-08-25T01:24:57.000Z,52.47
2022-08-25T01:26:02.000Z,52.99
2022-08-25T01:26:49.000Z,52.85
2022-08-25T01:27:49.000Z,52.76
2022-08-25T01:28:54.000Z,52.52
2022-08-25T01:29:48.000Z,52.49
2022-08-25T01:30:49.000Z,52.97
2022-08-25T01:31:59.000Z,53.26
2022-08-25T01:32:48.000Z,53.59
2022-08-25T01:33:49.000Z,52.95
2022-08-25T01:34:48.000Z,52.61
2022-08-25T01:35:49.000Z,53.18
2022-08-25T01:36:49.000Z,53.50
2022-08-25T01:37:48.000Z,53.29
2022-08-25T01:38:49.000Z,53.20
2022-08-25T01:39:48.000Z,53.68
2022-08-25T01:40:48.000Z,53.31
2022-08-25T01:41:59.000Z,53.49
2022-08-25T01:42:59.000Z,53.45
2022-08-25T01:43:49.000Z,53.79
2022-08-25T01:44:49.000Z,53.34
2022-08-25T01:45:49.000Z,53.93
2022-08-25T01:46:50.000Z,53.71
2022-08-25T01:47:49.000Z,53.77
2022-08-25T01:48:48.000Z,54.02
2022-08-25T01:49:48.000Z,53.71
2022-08-25T01:50:49.000Z,54.25
2022-08-25T01:51:58.000Z,54.10
2022-08-25T01:53:03.000Z,53.60
2022-08-25T01:53:49.000Z,53.55
2022-08-25T01:54:49.000Z,54.26
2022-08-25T01:55:52.000Z,54.71
2022-08-25T01:56:49.000Z,54.63
2022-08-25T01:57:49.000Z,54.40
2022-08-25T01:58:49.000Z,54.00
2022-08-25T01:59:49.000Z,54.61
2022-08-25T02:00:50.000Z,53.94
2022-08-25T02:01:49.000Z,54.62
2022-08-25T02:02:49.000Z,54.29
2022-08-25T02:03:51.000Z,54.62
2022-08-25T02:04:49.000Z,54.09
2022-08-25T02:05:49.000Z,54.91
2022-08-25T02:06:48.000Z,54.41
2022-08-25T02:07:49.000Z,54.25
2022-08-25T02:08:51.000Z,53.75
2022-08-25T02:09:49.000Z,53.95
2022-08-25T02:10:51.000Z,53.76
2022-08-25T02:11:49.000Z,54.64
2022-08-25T02:12:49.000Z,54.66
2022-08-25T02:13:50.000Z,54.50
2022-08-25T02:14:49.000Z,54.17
2022-08-25T02:15:54.000Z,54.51
2022-08-25T02:16:51.000Z,54.91
2022-08-25T02:17:49.000Z,55.02
2022-08-25T02:18:49.000Z,54.97
2022-08-25T02:19:49.000Z,54.60
2022-08-25T02:20:49.000Z,54.40
2022-08-25T02:21:49.000Z,55.05
2022-08-25T02:22:50.000Z,55.74
2022-08-25T02:23:49.000Z,55.33
2022-08-25T02:24:48.000Z,54.98
2022-08-25T02:25:49.000Z,54.49
2022-08-25T02:26:49.000Z,54.64
2022-08-25T02:27:48.000Z,54.29
2022-08-25T02:28:49.000Z,54.91
2022-08-25T02:29:48.000Z,55.68
2022-08-25T02:30:51.000Z,54.84
2022-08-25T02:31:48.000Z,54.55
2022-08-25T02:32:49.000Z,54.43
2022-08-25T02:33:49.000Z,54.30
2022-08-25T02:34:48.000Z,55.62
2022-08-25T02:35:49.000Z,55.57
2022-08-25T02:36:48.000Z,55.21
2022-08-25T02:37:49.000Z,55.33
2022-08-25T02:38:49.000Z,54.95
2022-08-25T02:39:48.000Z,54.65
2022-08-25T02:40:50.000Z,55.29
2022-08-25T02:41:48.000Z,54.98
2022-08-25T02:42:49.000Z,54.70
2022-08-25T02:43:49.000Z,54.80
2022-08-25T02:44:48.000Z,54.98
2022-08-25T02:45:48.000Z,54.91
2022-08-25T02:46:48.000Z,55.11
2022-08-25T02:47:48.000Z,55.16
2022-08-25T02:48:51.000Z,54.61
2022-08-25T02:49:48.000Z,54.84
2022-08-25T02:50:50.000Z,55.16
2022-08-25T02:51:48.000Z,54.67
2022-08-25T02:52:50.000Z,54.64
2022-08-25T02:53:48.000Z,55.21
2022-08-25T02:54:48.000Z,54.81
2022-08-25T02:55:48.000Z,55.16
2022-08-25T02:56:48.000Z,54.94
2022-08-25T02:57:48.000Z,55.32
2022-08-25T02:58:48.000Z,54.87
2022-08-25T02:59:50.000Z,54.69
2022-08-25T03:00:49.000Z,54.95
2022-08-25T03:01:48.000Z,54.98
2022-08-25T03:02:48.000Z,55.15
2022-08-25T03:03:50.000Z,55.45
2022-08-25T03:04:50.000Z,55.59
2022-08-25T03:05:49.000Z,55.37
2022-08-25T03:06:48.000Z,55.81
2022-08-25T03:07:48.000Z,55.50
2022-08-25T03:08:50.000Z,56.01
2022-08-25T03:09:48.000Z,56.04
2022-08-25T03:10:49.000Z,55.81
2022-08-25T03:11:48.000Z,56.04
2022-08-25T03:12:48.000Z,55.52
2022-08-25T03:13:49.000Z,55.91
2022-08-25T03:14:48.000Z,56.17
2022-08-25T03:15:48.000Z,55.63
2022-08-25T03:16:48.000Z,55.72
2022-08-25T03:17:48.000Z,56.16
2022-08-25T03:18:49.000Z,56.05
2022-08-25T03:19:48.000Z,56.14
2022-08-25T03:20:49.000Z,56.72
2022-08-25T03:21:51.000Z,56.52
2022-08-25T03:22:49.000Z,56.53
2022-08-25T03:23:48.000Z,56.89
2022-08-25T03:24:49.000Z,56.62
2022-08-25T03:25:54.000Z,56.19
2022-08-25T03:26:54.000Z,57.08
2022-08-25T03:27:50.000Z,56.80
2022-08-25T03:28:49.000Z,56.67
2022-08-25T03:29:49.000Z,56.44
2022-08-25T03:30:49.000Z,57.10
2022-08-25T03:31:50.000Z,56.73
2022-08-25T03:32:49.000Z,57.27
2022-08-25T03:33:49.000Z,56.82
2022-08-25T03:34:49.000Z,57.34
2022-08-25T03:35:49.000Z,57.50
2022-08-25T03:36:52.000Z,57.35
2022-08-25T03:37:54.000Z,57.39
2022-08-25T03:38:50.000Z,57.38
2022-08-25T03:39:49.000Z,57.18
2022-08-25T03:40:49.000Z,57.65
2022-08-25T03:41:51.000Z,57.09
2022-08-25T03:42:49.000Z,57.58
2022-08-25T03:43:50.000Z,57.01
2022-08-25T03:44:49.000Z,57.19
2022-08-25T03:45:49.000Z,57.31
2022-08-25T03:46:50.000Z,57.90
2022-08-25T03:47:50.000Z,57.96
2022-08-25T03:48:50.000Z,57.90
2022-08-25T03:49:49.000Z,58.06
2022-08-25T03:50:50.000Z,57.59
2022-08-25T03:51:51.000Z,57.94
2022-08-25T03:52:55.000Z,58.24
2022-08-25T03:53:50.000Z,58.23
2022-08-25T03:54:49.000Z,57.94
2022-08-25T03:55:49.000Z,57.54
2022-08-25T03:56:49.000Z,57.68
2022-08-25T03:57:50.000Z,58.16
2022-08-25T03:58:49.000Z,57.65
2022-08-25T03:59:48.000Z,58.25
2022-08-25T04:00:48.000Z,58.36
2022-08-25T04:01:48.000Z,58.63
2022-08-25T04:02:48.000Z,58.50
2022-08-25T04:03:48.000Z,58.49
2022-08-25T04:04:48.000Z,59.00
2022-08-25T04:05:48.000Z,59.14
2022-08-25T04:06:48.000Z,59.40
2022-08-25T04:07:48.000Z,59.07
2022-08-25T04:08:51.000Z,59.70
2022-08-25T04:09:48.000Z,59.16
2022-08-25T04:10:48.000Z,60.00
2022-08-25T04:11:49.000Z,59.42
2022-08-25T04:12:48.000Z,59.30
2022-08-25T04:13:49.000Z,59.60
2022-08-25T04:14:48.000Z,59.13
2022-08-25T04:15:48.000Z,59.70
2022-08-25T04:16:49.000Z,59.95
2022-08-25T04:17:48.000Z,59.61
2022-08-25T04:18:51.000Z,59.80
2022-08-25T04:19:49.000Z,60.12
2022-08-25T04:20:48.000Z,59.50
2022-08-25T04:21:49.000Z,59.75
2022-08-25T04:22:48.000Z,59.63
2022-08-25T04:23:50.000Z,60.33
2022-08-25T04:24:48.000Z,59.74
2022-08-25T04:25:48.000Z,60.21
2022-08-25T04:26:49.000Z,59.79
2022-08-25T04:27:48.000Z,59.93
2022-08-25T04:28:48.000Z,59.92
2022-08-25T04:29:48.000Z,60.00
2022-08-25T04:30:49.000Z,59.67
2022-08-25T04:31:50.000Z,60.09
2022-08-25T04:32:49.000Z,60.74
2022-08-25T04:33:49.000Z,60.69
2022-08-25T04:34:49.000Z,60.93
2022-08-25T04:35:49.000Z,60.90
2022-08-25T04:36:49.000Z,61.15
2022-08-25T04:37:49.000Z,60.67
2022-08-25T04:38:49.000Z,60.72
2022-08-25T04:39:48.000Z,60.98
2022-08-25T04:40:54.000Z,62.54
2022-08-25T04:41:49.000Z,62.27
2022-08-25T04:42:49.000Z,60.97
2022-08-25T04:43:49.000Z,62.14
2022-08-25T04:44:49.000Z,62.50
2022-08-25T04:45:49.000Z,62.22
2022-08-25T04:46:49.000Z,61.51
2022-08-25T04:47:49.000Z,62.44
2022-08-25T04:48:50.000Z,62.24
2022-08-25T04:49:49.000Z,61.82
2022-08-25T04:50:49.000Z,62.77
2022-08-25T04:51:48.000Z,62.24
2022-08-25T04:52:49.000Z,61.57
2022-08-25T04:53:50.000Z,61.88
2022-08-25T04:54:49.000Z,61.02
2022-08-25T04:55:48.000Z,61.05
2022-08-25T04:56:50.000Z,61.53
2022-08-25T04:57:48.000Z,61.54
2022-08-25T04:58:49.000Z,60.66
2022-08-25T04:59:49.000Z,60.26
2022-08-25T05:00:48.000Z,60.25
2022-08-25T05:01:49.000Z,60.12
2022-08-25T05:02:48.000Z,60.97
2022-08-25T05:03:55.000Z,61.12
2022-08-25T05:04:48.000Z,60.85
2022-08-25T05:05:50.000Z,60.99
2022-08-25T05:06:48.000Z,60.79
2022-08-25T05:07:48.000Z,60.98
2022-08-25T05:08:49.000Z,60.50
2022-08-25T05:09:48.000Z,60.67
2022-08-25T05:10:49.000Z,60.17
2022-08-25T05:11:48.000Z,60.50
2022-08-25T05:12:48.000Z,60.45
2022-08-25T05:13:50.000Z,60.15
2022-08-25T05:14:50.000Z,60.08
2022-08-25T05:15:56.000Z,60.00
2022-08-25T05:16:48.000Z,60.66
2022-08-25T05:17:48.000Z,60.96
2022-08-25T05:18:49.000Z,60.31
2022-08-25T05:19:48.000Z,60.42
2022-08-25T05:20:50.000Z,60.14
2022-08-25T05:21:49.000Z,61.37
2022-08-25T05:22:48.000Z,60.45
2022-08-25T05:23:48.000Z,60.24
2022-08-25T05:24:49.000Z,60.96
2022-08-25T05:25:50.000Z,60.65
2022-08-25T05:26:48.000Z,61.04
2022-08-25T05:27:48.000Z,60.79
2022-08-25T05:28:49.000Z,60.69
2022-08-25T05:29:48.000Z,60.46
2022-08-25T05:30:48.000Z,61.45
2022-08-25T05:31:49.000Z,60.93
2022-08-25T05:32:49.000Z,60.25
2022-08-25T05:33:50.000Z,61.02
2022-08-25T05:34:48.000Z,61.05
2022-08-25T05:35:49.000Z,60.80
2022-08-25T05:36:49.000Z,60.51
2022-08-25T05:37:48.000Z,60.26
2022-08-25T05:38:49.000Z,61.27
2022-08-25T05:39:48.000Z,61.64
2022-08-25T05:40:55.000Z,61.12
2022-08-25T05:41:48.000Z,61.37
2022-08-25T05:42:49.000Z,60.93
2022-08-25T05:43:49.000Z,60.39
2022-08-25T05:44:49.000Z,60.26
2022-08-25T05:45:52.000Z,60.16
2022-08-25T05:46:49.000Z,60.02
2022-08-25T05:47:49.000Z,60.25
2022-08-25T05:48:49.000Z,60.51
2022-08-25T05:49:48.000Z,60.44
2022-08-25T05:50:57.000Z,61.05
2022-08-25T05:51:48.000Z,60.56
2022-08-25T05:52:49.000Z,60.73
2022-08-25T05:53:49.000Z,61.00
2022-08-25T05:54:48.000Z,60.80
2022-08-25T05:55:51.000Z,60.84
2022-08-25T05:56:49.000Z,61.27
2022-08-25T05:57:49.000Z,61.21
2022-08-25T05:58:49.000Z,60.73
2022-08-25T05:59:48.000Z,60.13
2022-08-25T06:00:49.000Z,60.59
2022-08-25T06:01:54.000Z,61.18
2022-08-25T06:02:49.000Z,61.01
2022-08-25T06:03:52.000Z,61.02
2022-08-25T06:04:49.000Z,60.39
2022-08-25T06:05:49.000Z,61.03
2022-08-25T06:06:52.000Z,60.29
2022-08-25T06:07:50.000Z,60.52
2022-08-25T06:08:49.000Z,60.31
2022-08-25T06:09:49.000Z,61.08
2022-08-25T06:10:52.000Z,60.83
2022-08-25T06:11:49.000Z,60.95
2022-08-25T06:12:49.000Z,60.89
2022-08-25T06:13:49.000Z,60.69
2022-08-25T06:14:49.000Z,60.89
2022-08-25T06:15:49.000Z,60.88
2022-08-25T06:16:51.000Z,60.67
2022-08-25T06:17:50.000Z,61.10
2022-08-25T06:18:49.000Z,61.02
2022-08-25T06:19:49.000Z,60.94
2022-08-25T06:20:49.000Z,60.58
2022-08-25T06:21:52.000Z,60.79
2022-08-25T06:22:49.000Z,61.05
2022-08-25T06:23:49.000Z,60.91
2022-08-25T06:24:49.000Z,60.97
2022-08-25T06:25:52.000Z,60.68
2022-08-25T06:26:49.000Z,60.80
2022-08-25T06:27:49.000Z,60.98
2022-08-25T06:28:50.000Z,60.92
2022-08-25T06:29:49.000Z,60.74
2022-08-25T06:30:49.000Z,60.92
2022-08-25T06:31:49.000Z,60.58
2022-08-25T06:32:49.000Z,60.86
2022-08-25T06:33:49.000Z,60.97
2022-08-25T06:34:49.000Z,60.75
2022-08-25T06:35:52.000Z,60.55
2022-08-25T06:36:49.000Z,60.19
2022-08-25T06:37:48.000Z,60.52
2022-08-25T06:38:48.000Z,60.83
2022-08-25T06:39:48.000Z,60.68
2022-08-25T06:40:50.000Z,60.30
2022-08-25T06:41:52.000Z,60.59
2022-08-25T06:42:48.000Z,60.91
2022-08-25T06:43:48.000Z,61.25
2022-08-25T06:44:48.000Z,61.08
2022-08-25T06:45:48.000Z,60.86
2022-08-25T06:46:49.000Z,60.79
2022-08-25T06:47:48.000Z,60.80
2022-08-25T06:48:48.000Z,61.31
2022-08-25T06:49:48.000Z,61.17
2022-08-25T06:50:48.000Z,61.01
2022-08-25T06:51:49.000Z,60.71
2022-08-25T06:52:50.000Z,60.73
2022-08-25T06:53:49.000Z,61.10
2022-08-25T06:54:49.000Z,60.99
2022-08-25T06:55:54.000Z,60.85
2022-08-25T06:56:49.000Z,60.79
2022-08-25T06:57:51.000Z,60.84
2022-08-25T06:58:48.000Z,60.75
2022-08-25T06:59:48.000Z,61.01
2022-08-25T07:00:49.000Z,61.06
2022-08-25T07:01:48.000Z,60.53
2022-08-25T07:02:48.000Z,60.29
2022-08-25T07:03:49.000Z,60.20
2022-08-25T07:04:49.000Z,60.24
2022-08-25T07:05:50.000Z,60.09
2022-08-25T07:06:49.000Z,59.82
2022-08-25T07:07:49.000Z,59.86
2022-08-25T07:08:49.000Z,59.80
2022-08-25T07:09:48.000Z,60.01
2022-08-25T07:10:49.000Z,59.80
2022-08-25T07:11:49.000Z,59.79
2022-08-25T07:12:50.000Z,59.69
2022-08-25T07:13:49.000Z,59.67
2022-08-25T07:14:49.000Z,59.91
2022-08-25T07:15:53.000Z,59.47
2022-08-25T07:16:49.000Z,59.60
2022-08-25T07:17:49.000Z,59.56
2022-08-25T07:18:49.000Z,59.63
2022-08-25T07:19:49.000Z,59.90
2022-08-25T07:20:51.000Z,59.85
2022-08-25T07:21:51.000Z,59.60
2022-08-25T07:22:48.000Z,59.52
2022-08-25T07:23:49.000Z,59.77
2022-08-25T07:24:49.000Z,60.02
2022-08-25T07:25:49.000Z,60.04
2022-08-25T07:26:49.000Z,59.60
2022-08-25T07:27:49.000Z,59.58
2022-08-25T07:28:50.000Z,59.67
2022-08-25T07:29:49.000Z,59.42
2022-08-25T07:30:49.000Z,59.33
2022-08-25T07:31:49.000Z,59.20
2022-08-25T07:32:49.000Z,59.32
2022-08-25T07:33:54.000Z,59.33
2022-08-25T07:34:53.000Z,58.99
2022-08-25T07:35:48.000Z,58.88
2022-08-25T07:36:48.000Z,58.80
2022-08-25T07:37:51.000Z,58.79
2022-08-25T07:38:49.000Z,58.36
2022-08-25T07:39:48.000Z,58.39
2022-08-25T07:41:00.000Z,58.24
2022-08-25T07:41:50.000Z,58.28
2022-08-25T07:42:51.000Z,58.17
2022-08-25T07:43:48.000Z,58.05
2022-08-25T07:44:48.000Z,57.94
2022-08-25T07:45:48.000Z,57.90
2022-08-25T07:46:50.000Z,58.10
2022-08-25T07:47:50.000Z,58.48
2022-08-25T07:48:48.000Z,58.71
2022-08-25T07:49:48.000Z,58.54
2022-08-25T07:50:48.000Z,58.74
2022-08-25T07:51:51.000Z,58.55
2022-08-25T07:52:49.000Z,58.58
2022-08-25T07:53:48.000Z,58.36
2022-08-25T07:54:48.000Z,58.30
2022-08-25T07:55:48.000Z,58.02
2022-08-25T07:56:49.000Z,57.98
2022-08-25T07:57:49.000Z,57.89
2022-08-25T07:58:48.000Z,57.69
2022-08-25T07:59:48.000Z,57.52
2022-08-25T08:00:51.000Z,57.39
2022-08-25T08:01:48.000Z,57.42
2022-08-25T08:02:48.000Z,57.21
2022-08-25T08:03:49.000Z,57.11
2022-08-25T08:04:50.000Z,57.35
2022-08-25T08:05:48.000Z,57.05
2022-08-25T08:06:48.000Z,56.93
2022-08-25T08:07:48.000Z,56.99
2022-08-25T08:08:50.000Z,57.60
2022-08-25T08:09:49.000Z,57.49
2022-08-25T08:10:48.000Z,57.29
2022-08-25T08:11:48.000Z,57.37
2022-08-25T08:12:48.000Z,57.33
2022-08-25T08:13:48.000Z,57.56
2022-08-25T08:14:49.000Z,57.46
2022-08-25T08:15:48.000Z,57.26
2022-08-25T08:16:48.000Z,57.04
2022-08-25T08:17:48.000Z,57.19
2022-08-25T08:18:48.000Z,56.71
2022-08-25T08:19:48.000Z,56.52
2022-08-25T08:20:48.000Z,56.35
2022-08-25T08:21:49.000Z,56.38
2022-08-25T08:22:48.000Z,56.38
2022-08-25T08:23:49.000Z,56.20
2022-08-25T08:24:48.000Z,56.26
2022-08-25T08:25:48.000Z,56.01
2022-08-25T08:26:48.000Z,56.21
2022-08-25T08:27:49.000Z,56.30
2022-08-25T08:28:49.000Z,55.95
2022-08-25T08:29:48.000Z,55.70
2022-08-25T08:30:48.000Z,55.67
2022-08-25T08:31:48.000Z,55.75
2022-08-25T08:32:48.000Z,55.52
2022-08-25T08:33:49.000Z,55.32
2022-08-25T08:34:49.000Z,55.29
2022-08-25T08:35:55.000Z,55.36
2022-08-25T08:36:49.000Z,55.13
2022-08-25T08:37:49.000Z,55.12
2022-08-25T08:38:49.000Z,55.10
2022-08-25T08:39:50.000Z,55.24
2022-08-25T08:41:14.000Z,55.30
2022-08-25T08:42:04.000Z,55.43
2022-08-25T08:43:07.000Z,55.45
2022-08-25T08:44:04.000Z,55.15
2022-08-25T08:45:03.000Z,54.86
2022-08-25T08:45:51.000Z,54.87
2022-08-25T08:47:08.000Z,54.77
2022-08-25T08:48:11.000Z,54.58
2022-08-25T08:49:00.000Z,54.65
2022-08-25T08:49:59.000Z,54.24
2022-08-25T08:51:19.000Z,54.46
2022-08-25T08:51:59.000Z,54.26
2022-08-25T08:52:56.000Z,54.00
2022-08-25T08:54:12.000Z,54.15
2022-08-25T08:54:55.000Z,54.05
2022-08-25T08:55:56.000Z,53.91
2022-08-25T08:56:58.000Z,54.33
2022-08-25T08:57:52.000Z,54.23
2022-08-25T08:58:59.000Z,54.23
2022-08-25T08:59:54.000Z,54.02
2022-08-25T09:00:54.000Z,54.23
2022-08-25T09:01:52.000Z,54.04
2022-08-25T09:02:59.000Z,54.27
2022-08-25T09:04:07.000Z,54.07
2022-08-25T09:04:57.000Z,53.84
2022-08-25T09:05:52.000Z,53.87
2022-08-25T09:06:49.000Z,53.80
2022-08-25T09:07:56.000Z,53.72
2022-08-25T09:08:49.000Z,53.28
2022-08-25T09:09:50.000Z,53.05
2022-08-25T09:10:59.000Z,53.43
2022-08-25T09:12:09.000Z,53.39
2022-08-25T09:13:00.000Z,53.46
2022-08-25T09:14:06.000Z,53.29
2022-08-25T09:14:59.000Z,53.53
2022-08-25T09:16:03.000Z,53.35
2022-08-25T09:17:04.000Z,53.26
2022-08-25T09:18:02.000Z,53.28
2022-08-25T09:19:12.000Z,53.46
2022-08-25T09:19:59.000Z,53.35
2022-08-25T09:21:05.000Z,53.27
2022-08-25T09:22:00.000Z,53.45
2022-08-25T09:23:09.000Z,52.68
2022-08-25T09:24:03.000Z,52.34
2022-08-25T09:25:05.000Z,51.94
2022-08-25T09:26:09.000Z,52.36
2022-08-25T09:27:12.000Z,51.99
2022-08-25T09:27:59.000Z,51.81
2022-08-25T09:29:17.000Z,51.63
2022-08-25T09:30:06.000Z,51.13
2022-08-25T09:31:01.000Z,51.15
2022-08-25T09:31:49.000Z,50.66
2022-08-25T09:32:52.000Z,50.34
2022-08-25T09:33:53.000Z,50.84
2022-08-25T09:34:51.000Z,50.66
2022-08-25T09:35:51.000Z,50.41
2022-08-25T09:36:51.000Z,50.38
2022-08-25T09:37:55.000Z,50.28
2022-08-25T09:38:48.000Z,50.44
2022-08-25T09:39:49.000Z,50.41
2022-08-25T09:40:53.000Z,50.47
2022-08-25T09:41:54.000Z,49.25
2022-08-25T09:42:52.000Z,49.34
2022-08-25T09:43:52.000Z,48.98
2022-08-25T09:44:48.000Z,49.25
2022-08-25T09:45:58.000Z,49.66
2022-08-25T09:46:59.000Z,49.44
2022-08-25T09:47:48.000Z,49.11
2022-08-25T09:48:51.000Z,48.71
2022-08-25T09:49:59.000Z,49.14
2022-08-25T09:50:51.000Z,49.19
2022-08-25T09:51:48.000Z,49.21
2022-08-25T09:52:48.000Z,49.16
2022-08-25T09:53:58.000Z,49.29
2022-08-25T09:54:49.000Z,49.23
2022-08-25T09:55:57.000Z,48.93
2022-08-25T09:56:54.000Z,48.43
2022-08-25T09:57:51.000Z,48.66
2022-08-25T09:58:49.000Z,48.49
2022-08-25T09:59:51.000Z,48.31
2022-08-25T10:00:58.000Z,48.32
2022-08-25T10:01:55.000Z,48.09
2022-08-25T10:02:58.000Z,47.58
2022-08-25T10:03:57.000Z,47.55
2022-08-25T10:04:49.000Z,47.52
2022-08-25T10:06:04.000Z,47.55
2022-08-25T10:06:49.000Z,47.34
2022-08-25T10:07:53.000Z,47.35
2022-08-25T10:08:57.000Z,47.26
2022-08-25T10:09:58.000Z,47.30
2022-08-25T10:10:52.000Z,47.05
2022-08-25T10:11:48.000Z,46.74
2022-08-25T10:12:48.000Z,46.99
2022-08-25T10:14:14.000Z,46.86
2022-08-25T10:14:49.000Z,46.59
2022-08-25T10:16:03.000Z,46.97
2022-08-25T10:16:48.000Z,46.96
2022-08-25T10:17:48.000Z,46.63
2022-08-25T10:18:58.000Z,46.74
2022-08-25T10:20:03.000Z,46.81
2022-08-25T10:21:11.000Z,46.81
2022-08-25T10:22:05.000Z,47.39
2022-08-25T10:22:49.000Z,47.53
2022-08-25T10:23:51.000Z,47.42
2022-08-25T10:24:48.000Z,47.34
2022-08-25T10:25:49.000Z,47.40
2022-08-25T10:27:00.000Z,47.06
2022-08-25T10:27:59.000Z,47.18
2022-08-25T10:29:01.000Z,46.97
2022-08-25T10:29:58.000Z,46.92
2022-08-25T10:31:18.000Z,46.51
2022-08-25T10:31:57.000Z,46.64
2022-08-25T10:33:04.000Z,46.55
2022-08-25T10:34:18.000Z,46.42
2022-08-25T10:34:55.000Z,46.25
2022-08-25T10:35:58.000Z,45.75
2022-08-25T10:36:58.000Z,46.11
2022-08-25T10:38:02.000Z,45.76
2022-08-25T10:38:56.000Z,45.94
2022-08-25T10:40:12.000Z,46.26
2022-08-25T10:41:05.000Z,45.91
2022-08-25T10:42:11.000Z,46.09
2022-08-25T10:42:58.000Z,46.44
2022-08-25T10:44:01.000Z,46.51
2022-08-25T10:45:08.000Z,46.56
2022-08-25T10:46:00.000Z,46.14
2022-08-25T10:47:02.000Z,46.09
2022-08-25T10:48:07.000Z,45.93
2022-08-25T10:49:01.000Z,45.72
2022-08-25T10:49:54.000Z,45.57
2022-08-25T10:51:00.000Z,45.94
2022-08-25T10:51:59.000Z,45.56
2022-08-25T10:53:12.000Z,45.17
2022-08-25T10:54:01.000Z,44.83
2022-08-25T10:54:59.000Z,44.77
2022-08-25T10:56:02.000Z,44.61
2022-08-25T10:57:05.000Z,44.59
2022-08-25T10:58:01.000Z,44.73
2022-08-25T10:59:06.000Z,44.17
2022-08-25T10:59:58.000Z,44.30
2022-08-25T11:01:01.000Z,44.42
2022-08-25T11:02:25.000Z,43.68
2022-08-25T11:03:10.000Z,43.97
2022-08-25T11:04:11.000Z,43.73
2022-08-25T11:04:59.000Z,43.81
2022-08-25T11:05:54.000Z,43.98
2022-08-25T11:06:59.000Z,42.99
2022-08-25T11:07:55.000Z,43.61
2022-08-25T11:08:54.000Z,43.22
2022-08-25T11:09:53.000Z,43.19
2022-08-25T11:10:58.000Z,42.96
2022-08-25T11:11:55.000Z,43.12
2022-08-25T11:12:53.000Z,43.03
2022-08-25T11:13:56.000Z,43.07
2022-08-25T11:14:54.000Z,42.52
2022-08-25T11:15:53.000Z,42.90
2022-08-25T11:16:58.000Z,43.20
2022-08-25T11:17:56.000Z,42.42
2022-08-25T11:18:54.000Z,42.50
2022-08-25T11:19:53.000Z,42.62
2022-08-25T11:20:58.000Z,42.14
2022-08-25T11:21:58.000Z,41.99
2022-08-25T11:23:11.000Z,41.94
2022-08-25T11:24:00.000Z,41.79
2022-08-25T11:25:11.000Z,41.36
2022-08-25T11:25:57.000Z,41.83
2022-08-25T11:26:54.000Z,41.41
2022-08-25T11:27:57.000Z,41.65
2022-08-25T11:29:00.000Z,41.71
2022-08-25T11:29:58.000Z,41.57
2022-08-25T11:30:50.000Z,41.37
2022-08-25T11:31:51.000Z,41.54
2022-08-25T11:32:51.000Z,41.99
2022-08-25T11:33:49.000Z,41.93
2022-08-25T11:34:50.000Z,41.69
2022-08-25T11:36:00.000Z,41.52
2022-08-25T11:36:53.000Z,41.10
2022-08-25T11:38:08.000Z,41.37
2022-08-25T11:39:08.000Z,40.88
2022-08-25T11:40:12.000Z,41.48
2022-08-25T11:41:12.000Z,41.21
2022-08-25T11:42:04.000Z,41.08
2022-08-25T11:43:12.000Z,40.94
2022-08-25T11:44:17.000Z,40.90
2022-08-25T11:44:59.000Z,41.03
2022-08-25T11:46:12.000Z,41.12
2022-08-25T11:47:14.000Z,40.70
2022-08-25T11:48:04.000Z,40.59
2022-08-25T11:48:59.000Z,40.45
2022-08-25T11:50:01.000Z,40.65
2022-08-25T11:50:56.000Z,41.00
2022-08-25T11:51:50.000Z,41.24
2022-08-25T11:52:54.000Z,41.54
2022-08-25T11:54:18.000Z,41.27
2022-08-25T11:54:49.000Z,41.48
2022-08-25T11:55:52.000Z,41.88
2022-08-25T11:57:09.000Z,41.75
2022-08-25T11:57:51.000Z,41.66
2022-08-25T11:58:52.000Z,41.86
2022-08-25T12:00:10.000Z,41.77
2022-08-25T12:00:49.000Z,41.77
2022-08-25T12:01:58.000Z,41.90
2022-08-25T12:02:50.000Z,41.68
2022-08-25T12:03:49.000Z,41.64
2022-08-25T12:04:50.000Z,41.72
2022-08-25T12:06:05.000Z,41.70
2022-08-25T12:07:19.000Z,41.93
2022-08-25T12:08:07.000Z,41.60
2022-08-25T12:09:00.000Z,41.42
2022-08-25T12:10:09.000Z,41.17
2022-08-25T12:11:01.000Z,41.51
2022-08-25T12:11:52.000Z,41.32
2022-08-25T12:12:55.000Z,41.77
2022-08-25T12:13:50.000Z,41.21
2022-08-25T12:14:50.000Z,41.06
2022-08-25T12:16:04.000Z,41.11
2022-08-25T12:17:08.000Z,41.42
2022-08-25T12:18:12.000Z,41.35
2022-08-25T12:18:48.000Z,41.28
2022-08-25T12:19:55.000Z,41.26
2022-08-25T12:21:11.000Z,41.44
2022-08-25T12:21:50.000Z,41.70
2022-08-25T12:22:54.000Z,41.85
2022-08-25T12:23:58.000Z,41.98
2022-08-25T12:24:53.000Z,42.20
2022-08-25T12:25:53.000Z,41.85
2022-08-25T12:26:55.000Z,41.30
2022-08-25T12:28:08.000Z,41.26
2022-08-25T12:29:02.000Z,41.36
2022-08-25T12:29:59.000Z,41.19
2022-08-25T12:30:57.000Z,40.65
2022-08-25T12:31:59.000Z,40.44
2022-08-25T12:32:59.000Z,40.58
2022-08-25T12:33:58.000Z,40.31
2022-08-25T12:34:58.000Z,40.06
2022-08-25T12:35:57.000Z,39.94
2022-08-25T12:36:55.000Z,39.92
2022-08-25T12:37:58.000Z,39.73
2022-08-25T12:38:49.000Z,39.81
2022-08-25T12:40:02.000Z,39.43
2022-08-25T12:41:11.000Z,39.39
2022-08-25T12:41:55.000Z,39.50
2022-08-25T12:43:01.000Z,39.63
2022-08-25T12:43:50.000Z,39.78
2022-08-25T12:45:08.000Z,39.70
2022-08-25T12:45:51.000Z,39.70
2022-08-25T12:47:08.000Z,39.84
2022-08-25T12:47:51.000Z,39.30
2022-08-25T12:48:58.000Z,39.22
2022-08-25T12:49:49.000Z,39.11
2022-08-25T12:50:57.000Z,39.26
2022-08-25T12:52:17.000Z,39.38
2022-08-25T12:52:49.000Z,39.39